sensor_id;sensor_type;location;lat;lon;timestamp;pressure;altitude;pressure_sealevel;temperature;humidity
9889;BME280;4983;42.112;24.738;2023-08-31T00:00:40;98826.22;;;23.95;66.83
9889;BME280;4983;42.112;24.738;2023-08-31T00:03:08;98830.84;;;23.90;67.22
9889;BME280;4983;42.112;24.738;2023-08-31T00:05:37;98835.38;;;23.96;67.07
9889;BME280;4983;42.112;24.738;2023-08-31T00:08:08;98828.09;;;23.78;66.73
9889;BME280;4983;42.112;24.738;2023-08-31T00:10:35;98818.16;;;23.94;66.11
9889;BME280;4983;42.112;24.738;2023-08-31T00:13:03;98821.03;;;23.99;65.95
9889;BME280;4983;42.112;24.738;2023-08-31T00:15:32;98826.41;;;23.89;65.72
9889;BME280;4983;42.112;24.738;2023-08-31T00:18:01;98857.25;;;23.97;68.74
9889;BME280;4983;42.112;24.738;2023-08-31T00:20:30;98831.28;;;23.87;66.95
9889;BME280;4983;42.112;24.738;2023-08-31T00:23:00;98834.69;;;23.89;65.63
9889;BME280;4983;42.112;24.738;2023-08-31T00:25:29;98847.41;;;23.90;66.70
9889;BME280;4983;42.112;24.738;2023-08-31T00:27:57;98838.97;;;23.68;68.38
9889;BME280;4983;42.112;24.738;2023-08-31T00:30:30;98850.53;;;23.82;68.34
9889;BME280;4983;42.112;24.738;2023-08-31T00:32:57;98848.75;;;23.76;67.82
9889;BME280;4983;42.112;24.738;2023-08-31T00:35:25;98842.88;;;23.56;68.37
9889;BME280;4983;42.112;24.738;2023-08-31T00:37:52;98854.25;;;23.59;68.33
9889;BME280;4983;42.112;24.738;2023-08-31T00:40:25;98857.81;;;23.71;68.65
9889;BME280;4983;42.112;24.738;2023-08-31T00:42:57;98857.22;;;23.69;68.25
9889;BME280;4983;42.112;24.738;2023-08-31T00:45:26;98859.81;;;23.76;68.82
9889;BME280;4983;42.112;24.738;2023-08-31T00:47:54;98854.63;;;23.91;67.78
9889;BME280;4983;42.112;24.738;2023-08-31T00:50:22;98851.16;;;23.84;67.56
9889;BME280;4983;42.112;24.738;2023-08-31T00:52:50;98849.19;;;23.84;68.21
9889;BME280;4983;42.112;24.738;2023-08-31T00:55:17;98850.09;;;23.73;68.18
9889;BME280;4983;42.112;24.738;2023-08-31T00:57:45;98848.69;;;23.71;67.44
9889;BME280;4983;42.112;24.738;2023-08-31T01:00:14;98855.78;;;23.67;67.91
9889;BME280;4983;42.112;24.738;2023-08-31T01:02:50;98854.22;;;23.71;67.02
9889;BME280;4983;42.112;24.738;2023-08-31T01:05:27;98852.97;;;23.78;67.16
9889;BME280;4983;42.112;24.738;2023-08-31T01:08:01;98853.06;;;23.55;67.89
9889;BME280;4983;42.112;24.738;2023-08-31T01:11:05;98858.53;;;23.50;67.32
9889;BME280;4983;42.112;24.738;2023-08-31T01:13:45;98852.06;;;23.61;66.17
9889;BME280;4983;42.112;24.738;2023-08-31T01:16:17;98855.44;;;23.63;65.61
9889;BME280;4983;42.112;24.738;2023-08-31T01:18:46;98855.78;;;23.67;66.50
9889;BME280;4983;42.112;24.738;2023-08-31T01:21:25;98849.31;;;23.61;65.52
9889;BME280;4983;42.112;24.738;2023-08-31T01:24:08;98852.78;;;23.68;65.17
9889;BME280;4983;42.112;24.738;2023-08-31T01:26:42;98858.16;;;23.75;64.63
9889;BME280;4983;42.112;24.738;2023-08-31T01:29:09;98856.25;;;23.75;64.51
9889;BME280;4983;42.112;24.738;2023-08-31T01:31:45;98868.03;;;23.71;65.33
9889;BME280;4983;42.112;24.738;2023-08-31T01:34:34;98867.59;;;23.90;64.97
9889;BME280;4983;42.112;24.738;2023-08-31T01:37:10;98857.66;;;23.78;64.81
9889;BME280;4983;42.112;24.738;2023-08-31T01:39:52;98858.59;;;23.83;64.11
9889;BME280;4983;42.112;24.738;2023-08-31T01:42:22;98860.88;;;23.86;64.78
9889;BME280;4983;42.112;24.738;2023-08-31T01:44:50;98866.53;;;23.80;65.05
9889;BME280;4983;42.112;24.738;2023-08-31T01:47:18;98876.06;;;23.72;65.04
9889;BME280;4983;42.112;24.738;2023-08-31T01:49:46;98866.00;;;23.66;64.99
9889;BME280;4983;42.112;24.738;2023-08-31T01:52:30;98872.63;;;23.65;65.33
9889;BME280;4983;42.112;24.738;2023-08-31T01:55:09;98875.47;;;23.70;65.25
9889;BME280;4983;42.112;24.738;2023-08-31T01:57:39;98883.09;;;23.63;66.00
9889;BME280;4983;42.112;24.738;2023-08-31T02:00:09;98899.59;;;23.75;67.36
9889;BME280;4983;42.112;24.738;2023-08-31T02:02:36;98893.53;;;23.61;66.65
9889;BME280;4983;42.112;24.738;2023-08-31T02:05:04;98899.91;;;23.62;67.82
9889;BME280;4983;42.112;24.738;2023-08-31T02:07:31;98899.06;;;23.61;66.53
9889;BME280;4983;42.112;24.738;2023-08-31T02:10:00;98902.25;;;23.70;67.32
9889;BME280;4983;42.112;24.738;2023-08-31T02:12:27;98912.34;;;23.48;68.64
9889;BME280;4983;42.112;24.738;2023-08-31T02:14:54;98912.97;;;23.38;66.94
9889;BME280;4983;42.112;24.738;2023-08-31T02:17:21;98911.84;;;23.51;68.35
9889;BME280;4983;42.112;24.738;2023-08-31T02:19:50;98914.00;;;23.49;69.23
9889;BME280;4983;42.112;24.738;2023-08-31T02:22:17;98913.09;;;23.32;69.19
9889;BME280;4983;42.112;24.738;2023-08-31T02:24:45;98925.16;;;23.54;70.49
9889;BME280;4983;42.112;24.738;2023-08-31T02:27:17;98922.88;;;23.51;69.73
9889;BME280;4983;42.112;24.738;2023-08-31T02:29:44;98912.28;;;23.20;68.68
9889;BME280;4983;42.112;24.738;2023-08-31T02:32:11;98926.91;;;23.20;69.16
9889;BME280;4983;42.112;24.738;2023-08-31T02:34:46;98915.84;;;23.32;69.40
9889;BME280;4983;42.112;24.738;2023-08-31T02:37:18;98930.97;;;23.06;69.89
9889;BME280;4983;42.112;24.738;2023-08-31T02:39:51;98930.88;;;23.13;68.95
9889;BME280;4983;42.112;24.738;2023-08-31T02:42:31;98933.88;;;23.23;68.98
9889;BME280;4983;42.112;24.738;2023-08-31T02:45:01;98933.38;;;23.03;70.20
9889;BME280;4983;42.112;24.738;2023-08-31T02:47:28;98927.84;;;23.14;69.57
9889;BME280;4983;42.112;24.738;2023-08-31T02:49:55;98943.00;;;23.23;70.19
9889;BME280;4983;42.112;24.738;2023-08-31T02:52:22;98944.41;;;23.14;69.59
9889;BME280;4983;42.112;24.738;2023-08-31T02:54:50;98949.50;;;23.17;69.76
9889;BME280;4983;42.112;24.738;2023-08-31T02:57:24;98954.16;;;23.28;69.35
9889;BME280;4983;42.112;24.738;2023-08-31T02:59:51;98953.81;;;23.02;69.26
9889;BME280;4983;42.112;24.738;2023-08-31T03:02:20;98970.84;;;23.22;72.21
9889;BME280;4983;42.112;24.738;2023-08-31T03:04:50;98954.75;;;23.30;69.87
9889;BME280;4983;42.112;24.738;2023-08-31T03:07:17;98963.31;;;23.17;69.67
9889;BME280;4983;42.112;24.738;2023-08-31T03:09:49;98962.44;;;23.17;69.13
9889;BME280;4983;42.112;24.738;2023-08-31T03:12:18;98969.16;;;23.09;69.69
9889;BME280;4983;42.112;24.738;2023-08-31T03:14:51;98961.25;;;23.13;69.65
9889;BME280;4983;42.112;24.738;2023-08-31T03:17:23;98978.91;;;23.23;71.38
9889;BME280;4983;42.112;24.738;2023-08-31T03:19:50;98985.97;;;23.31;72.77
9889;BME280;4983;42.112;24.738;2023-08-31T03:22:24;98975.91;;;23.25;70.92
9889;BME280;4983;42.112;24.738;2023-08-31T03:24:51;98988.59;;;23.14;71.01
9889;BME280;4983;42.112;24.738;2023-08-31T03:27:22;98976.50;;;22.92;71.87
9889;BME280;4983;42.112;24.738;2023-08-31T03:30:12;98976.81;;;22.84;72.14
9889;BME280;4983;42.112;24.738;2023-08-31T03:32:55;98972.41;;;22.72;71.56
9889;BME280;4983;42.112;24.738;2023-08-31T03:35:22;98973.47;;;22.82;72.97
9889;BME280;4983;42.112;24.738;2023-08-31T03:37:52;98971.94;;;22.86;71.91
9889;BME280;4983;42.112;24.738;2023-08-31T03:40:27;98975.03;;;22.78;72.64
9889;BME280;4983;42.112;24.738;2023-08-31T03:43:03;98982.38;;;22.96;72.80
9889;BME280;4983;42.112;24.738;2023-08-31T03:45:40;98975.03;;;22.90;72.83
9889;BME280;4983;42.112;24.738;2023-08-31T03:48:07;98982.00;;;22.69;73.07
9889;BME280;4983;42.112;24.738;2023-08-31T03:50:40;98995.19;;;22.79;73.97
9889;BME280;4983;42.112;24.738;2023-08-31T03:53:07;98990.84;;;22.60;73.54
9889;BME280;4983;42.112;24.738;2023-08-31T03:55:43;98990.94;;;22.53;72.72
9889;BME280;4983;42.112;24.738;2023-08-31T03:58:10;99000.31;;;22.64;73.29
9889;BME280;4983;42.112;24.738;2023-08-31T04:00:43;99013.06;;;22.76;74.52
9889;BME280;4983;42.112;24.738;2023-08-31T04:03:10;99009.34;;;22.71;73.75
9889;BME280;4983;42.112;24.738;2023-08-31T04:05:37;99006.44;;;22.66;73.54
9889;BME280;4983;42.112;24.738;2023-08-31T04:08:07;99020.56;;;22.58;74.02
9889;BME280;4983;42.112;24.738;2023-08-31T04:10:42;99024.19;;;22.70;74.39
9889;BME280;4983;42.112;24.738;2023-08-31T04:13:09;99016.41;;;22.67;73.56
9889;BME280;4983;42.112;24.738;2023-08-31T04:15:51;99020.03;;;22.79;73.42
9889;BME280;4983;42.112;24.738;2023-08-31T04:18:18;99025.78;;;22.77;73.16
9889;BME280;4983;42.112;24.738;2023-08-31T04:20:49;99024.41;;;22.57;73.33
9889;BME280;4983;42.112;24.738;2023-08-31T04:23:17;99040.19;;;22.79;74.07
9889;BME280;4983;42.112;24.738;2023-08-31T04:25:51;99035.59;;;22.73;72.77
9889;BME280;4983;42.112;24.738;2023-08-31T04:28:19;99051.09;;;22.86;73.30
9889;BME280;4983;42.112;24.738;2023-08-31T04:30:55;99045.59;;;22.86;73.69
9889;BME280;4983;42.112;24.738;2023-08-31T04:33:22;99051.22;;;22.79;74.31
9889;BME280;4983;42.112;24.738;2023-08-31T04:35:54;99060.94;;;22.82;74.07
9889;BME280;4983;42.112;24.738;2023-08-31T04:38:22;99051.84;;;22.93;74.42
9889;BME280;4983;42.112;24.738;2023-08-31T04:40:53;99053.63;;;22.99;74.12
9889;BME280;4983;42.112;24.738;2023-08-31T04:43:22;99053.34;;;23.18;73.84
9889;BME280;4983;42.112;24.738;2023-08-31T04:45:59;99050.81;;;23.28;73.48
9889;BME280;4983;42.112;24.738;2023-08-31T04:48:32;99048.91;;;23.40;71.96
9889;BME280;4983;42.112;24.738;2023-08-31T04:51:02;99057.91;;;23.36;73.27
9889;BME280;4983;42.112;24.738;2023-08-31T04:53:35;99063.53;;;23.29;73.35
9889;BME280;4983;42.112;24.738;2023-08-31T04:56:05;99070.88;;;23.35;73.40
9889;BME280;4983;42.112;24.738;2023-08-31T04:58:34;99078.91;;;23.48;74.03
9889;BME280;4983;42.112;24.738;2023-08-31T05:01:05;99072.66;;;23.53;73.61
9889;BME280;4983;42.112;24.738;2023-08-31T05:03:33;99076.84;;;23.55;74.10
9889;BME280;4983;42.112;24.738;2023-08-31T05:06:04;99079.41;;;23.68;72.08
9889;BME280;4983;42.112;24.738;2023-08-31T05:08:31;99075.78;;;23.68;72.82
9889;BME280;4983;42.112;24.738;2023-08-31T05:10:59;99075.38;;;23.76;72.08
9889;BME280;4983;42.112;24.738;2023-08-31T05:13:26;99084.06;;;23.91;74.01
9889;BME280;4983;42.112;24.738;2023-08-31T05:15:55;99077.69;;;24.02;73.41
9889;BME280;4983;42.112;24.738;2023-08-31T05:18:24;99063.97;;;24.07;72.40
9889;BME280;4983;42.112;24.738;2023-08-31T05:20:52;99070.41;;;24.12;72.69
9889;BME280;4983;42.112;24.738;2023-08-31T05:23:19;99063.56;;;24.15;71.13
9889;BME280;4983;42.112;24.738;2023-08-31T05:25:47;99054.50;;;24.31;69.48
9889;BME280;4983;42.112;24.738;2023-08-31T05:28:15;99049.13;;;24.41;68.74
9889;BME280;4983;42.112;24.738;2023-08-31T05:30:49;99052.09;;;24.51;68.37
9889;BME280;4983;42.112;24.738;2023-08-31T05:33:16;99033.06;;;24.66;65.86
9889;BME280;4983;42.112;24.738;2023-08-31T05:35:45;99035.84;;;24.82;66.12
9889;BME280;4983;42.112;24.738;2023-08-31T05:38:12;99025.03;;;24.97;63.31
9889;BME280;4983;42.112;24.738;2023-08-31T05:40:39;99034.09;;;25.09;64.57
9889;BME280;4983;42.112;24.738;2023-08-31T05:43:11;99038.34;;;25.17;62.93
9889;BME280;4983;42.112;24.738;2023-08-31T05:45:38;99028.66;;;25.31;63.77
9889;BME280;4983;42.112;24.738;2023-08-31T05:48:05;99025.53;;;25.27;60.74
9889;BME280;4983;42.112;24.738;2023-08-31T05:50:32;99027.88;;;25.35;59.60
9889;BME280;4983;42.112;24.738;2023-08-31T05:53:01;99025.94;;;25.36;61.27
9889;BME280;4983;42.112;24.738;2023-08-31T05:55:28;99018.78;;;25.40;58.56
9889;BME280;4983;42.112;24.738;2023-08-31T05:57:56;99027.81;;;25.52;60.54
9889;BME280;4983;42.112;24.738;2023-08-31T06:00:23;99019.03;;;25.55;57.75
9889;BME280;4983;42.112;24.738;2023-08-31T06:02:50;99019.75;;;25.67;58.44
9889;BME280;4983;42.112;24.738;2023-08-31T06:05:18;99017.53;;;25.69;59.40
9889;BME280;4983;42.112;24.738;2023-08-31T06:07:45;99027.09;;;25.78;61.81
9889;BME280;4983;42.112;24.738;2023-08-31T06:10:13;99014.38;;;25.82;58.44
9889;BME280;4983;42.112;24.738;2023-08-31T06:12:40;99014.06;;;25.78;57.30
9889;BME280;4983;42.112;24.738;2023-08-31T06:15:08;99012.72;;;25.81;57.39
9889;BME280;4983;42.112;24.738;2023-08-31T06:17:35;99014.81;;;25.90;57.74
9889;BME280;4983;42.112;24.738;2023-08-31T06:20:03;99017.16;;;25.98;57.25
9889;BME280;4983;42.112;24.738;2023-08-31T06:22:32;99009.78;;;26.09;56.96
9889;BME280;4983;42.112;24.738;2023-08-31T06:24:59;99010.66;;;26.14;55.72
9889;BME280;4983;42.112;24.738;2023-08-31T06:27:28;99011.34;;;26.26;56.67
9889;BME280;4983;42.112;24.738;2023-08-31T06:29:55;99009.28;;;26.38;54.08
9889;BME280;4983;42.112;24.738;2023-08-31T06:32:22;99005.91;;;26.36;55.49
9889;BME280;4983;42.112;24.738;2023-08-31T06:34:49;99009.31;;;26.43;53.87
9889;BME280;4983;42.112;24.738;2023-08-31T06:37:17;99010.47;;;26.47;53.62
9889;BME280;4983;42.112;24.738;2023-08-31T06:39:44;99010.09;;;26.60;54.73
9889;BME280;4983;42.112;24.738;2023-08-31T06:42:12;99024.75;;;26.82;54.96
9889;BME280;4983;42.112;24.738;2023-08-31T06:44:40;99014.91;;;27.01;54.66
9889;BME280;4983;42.112;24.738;2023-08-31T06:47:07;99023.16;;;27.18;54.58
9889;BME280;4983;42.112;24.738;2023-08-31T06:49:35;98994.69;;;27.11;51.62
9889;BME280;4983;42.112;24.738;2023-08-31T06:52:02;99006.22;;;27.24;54.18
9889;BME280;4983;42.112;24.738;2023-08-31T06:54:33;99003.69;;;27.23;50.55
9889;BME280;4983;42.112;24.738;2023-08-31T06:57:00;99004.63;;;27.33;51.86
9889;BME280;4983;42.112;24.738;2023-08-31T06:59:28;99009.72;;;27.46;51.42
9889;BME280;4983;42.112;24.738;2023-08-31T07:01:57;99007.09;;;27.30;52.06
9889;BME280;4983;42.112;24.738;2023-08-31T07:04:24;99018.66;;;27.17;51.00
9889;BME280;4983;42.112;24.738;2023-08-31T07:06:51;99014.69;;;27.08;51.82
9889;BME280;4983;42.112;24.738;2023-08-31T07:09:18;99021.06;;;27.08;52.31
9889;BME280;4983;42.112;24.738;2023-08-31T07:11:45;99028.41;;;27.19;53.94
9889;BME280;4983;42.112;24.738;2023-08-31T07:14:12;99029.00;;;27.21;53.01
9889;BME280;4983;42.112;24.738;2023-08-31T07:16:40;99018.19;;;27.25;52.17
9889;BME280;4983;42.112;24.738;2023-08-31T07:19:08;99031.47;;;27.59;55.57
9889;BME280;4983;42.112;24.738;2023-08-31T07:21:36;99005.16;;;27.77;52.21
9889;BME280;4983;42.112;24.738;2023-08-31T07:24:03;99011.41;;;27.99;53.37
9889;BME280;4983;42.112;24.738;2023-08-31T07:26:32;99000.59;;;28.07;50.70
9889;BME280;4983;42.112;24.738;2023-08-31T07:29:00;99009.50;;;28.14;49.03
9889;BME280;4983;42.112;24.738;2023-08-31T07:31:30;99006.16;;;28.07;48.58
9889;BME280;4983;42.112;24.738;2023-08-31T07:33:57;99005.66;;;28.30;50.05
9889;BME280;4983;42.112;24.738;2023-08-31T07:36:27;98992.03;;;28.34;48.10
9889;BME280;4983;42.112;24.738;2023-08-31T07:38:54;98985.38;;;28.30;46.77
9889;BME280;4983;42.112;24.738;2023-08-31T07:41:21;98989.81;;;28.31;47.56
9889;BME280;4983;42.112;24.738;2023-08-31T07:43:49;98985.69;;;28.48;48.46
9889;BME280;4983;42.112;24.738;2023-08-31T07:46:17;98979.03;;;28.64;46.10
9889;BME280;4983;42.112;24.738;2023-08-31T07:48:44;98973.75;;;28.68;45.73
9889;BME280;4983;42.112;24.738;2023-08-31T07:51:12;98962.91;;;28.81;44.58
9889;BME280;4983;42.112;24.738;2023-08-31T07:53:42;98979.63;;;29.11;44.17
9889;BME280;4983;42.112;24.738;2023-08-31T07:56:09;98961.25;;;29.10;44.69
9889;BME280;4983;42.112;24.738;2023-08-31T07:58:36;98963.19;;;29.15;43.53
9889;BME280;4983;42.112;24.738;2023-08-31T08:01:04;98963.44;;;29.28;44.28
9889;BME280;4983;42.112;24.738;2023-08-31T08:03:33;98961.53;;;29.14;44.44
9889;BME280;4983;42.112;24.738;2023-08-31T08:06:00;98960.13;;;29.11;43.16
9889;BME280;4983;42.112;24.738;2023-08-31T08:08:28;98953.69;;;29.16;42.43
9889;BME280;4983;42.112;24.738;2023-08-31T08:10:56;98949.78;;;29.27;43.10
9889;BME280;4983;42.112;24.738;2023-08-31T08:13:25;98948.06;;;29.61;39.99
9889;BME280;4983;42.112;24.738;2023-08-31T08:15:52;98937.06;;;29.79;43.08
9889;BME280;4983;42.112;24.738;2023-08-31T08:18:20;98927.25;;;29.97;41.42
9889;BME280;4983;42.112;24.738;2023-08-31T08:20:48;98942.25;;;30.11;41.04
9889;BME280;4983;42.112;24.738;2023-08-31T08:23:16;98944.47;;;30.09;42.33
9889;BME280;4983;42.112;24.738;2023-08-31T08:25:43;98947.25;;;30.24;42.46
9889;BME280;4983;42.112;24.738;2023-08-31T08:28:12;98939.53;;;30.44;41.24
9889;BME280;4983;42.112;24.738;2023-08-31T08:30:39;98924.28;;;30.32;40.69
9889;BME280;4983;42.112;24.738;2023-08-31T08:33:08;98905.47;;;30.42;38.58
9889;BME280;4983;42.112;24.738;2023-08-31T08:35:37;98919.03;;;30.59;40.63
9889;BME280;4983;42.112;24.738;2023-08-31T08:38:04;98915.06;;;30.70;39.80
9889;BME280;4983;42.112;24.738;2023-08-31T08:40:32;98911.75;;;30.63;39.29
9889;BME280;4983;42.112;24.738;2023-08-31T08:43:00;98911.75;;;30.68;38.76
9889;BME280;4983;42.112;24.738;2023-08-31T08:45:33;98901.41;;;30.63;36.72
9889;BME280;4983;42.112;24.738;2023-08-31T08:48:05;98899.84;;;30.86;36.95
9889;BME280;4983;42.112;24.738;2023-08-31T08:50:35;98901.56;;;31.10;35.88
9889;BME280;4983;42.112;24.738;2023-08-31T08:53:03;98911.22;;;31.23;39.33
9889;BME280;4983;42.112;24.738;2023-08-31T08:55:29;98904.78;;;31.27;37.75
9889;BME280;4983;42.112;24.738;2023-08-31T08:57:57;98898.94;;;31.47;36.00
9889;BME280;4983;42.112;24.738;2023-08-31T09:00:25;98881.97;;;31.39;37.09
9889;BME280;4983;42.112;24.738;2023-08-31T09:02:54;98875.28;;;31.35;36.45
9889;BME280;4983;42.112;24.738;2023-08-31T09:05:21;98890.19;;;31.54;36.14
9889;BME280;4983;42.112;24.738;2023-08-31T09:08:03;98881.81;;;31.96;36.24
9889;BME280;4983;42.112;24.738;2023-08-31T09:10:36;98877.72;;;31.65;33.99
9889;BME280;4983;42.112;24.738;2023-08-31T09:13:07;98870.50;;;31.59;35.19
9889;BME280;4983;42.112;24.738;2023-08-31T09:15:43;98886.00;;;31.28;35.64
9889;BME280;4983;42.112;24.738;2023-08-31T09:18:16;98858.69;;;31.43;35.02
9889;BME280;4983;42.112;24.738;2023-08-31T09:20:50;98867.81;;;31.54;33.34
9889;BME280;4983;42.112;24.738;2023-08-31T09:23:18;98866.75;;;31.92;34.94
9889;BME280;4983;42.112;24.738;2023-08-31T09:25:46;98853.09;;;32.27;33.55
9889;BME280;4983;42.112;24.738;2023-08-31T09:28:14;98869.28;;;32.30;35.08
9889;BME280;4983;42.112;24.738;2023-08-31T09:30:42;98854.88;;;32.00;32.88
9889;BME280;4983;42.112;24.738;2023-08-31T09:33:11;98850.03;;;32.05;35.02
9889;BME280;4983;42.112;24.738;2023-08-31T09:35:48;98860.97;;;32.25;33.22
9889;BME280;4983;42.112;24.738;2023-08-31T09:38:16;98864.09;;;32.74;34.48
9889;BME280;4983;42.112;24.738;2023-08-31T09:40:43;98849.97;;;32.79;32.98
9889;BME280;4983;42.112;24.738;2023-08-31T09:43:10;98855.06;;;32.59;33.53
9889;BME280;4983;42.112;24.738;2023-08-31T09:45:38;98856.28;;;32.39;32.39
9889;BME280;4983;42.112;24.738;2023-08-31T09:48:06;98856.63;;;32.51;33.82
9889;BME280;4983;42.112;24.738;2023-08-31T09:50:37;98841.97;;;32.54;31.77
9889;BME280;4983;42.112;24.738;2023-08-31T09:53:10;98849.97;;;32.47;32.89
9889;BME280;4983;42.112;24.738;2023-08-31T09:55:39;98860.03;;;32.11;34.88
9889;BME280;4983;42.112;24.738;2023-08-31T09:58:07;98883.72;;;32.19;35.94
9889;BME280;4983;42.112;24.738;2023-08-31T10:00:36;98888.13;;;32.43;36.54
9889;BME280;4983;42.112;24.738;2023-08-31T10:03:05;98853.25;;;32.36;33.51
9889;BME280;4983;42.112;24.738;2023-08-31T10:05:33;98877.81;;;32.57;35.20
9889;BME280;4983;42.112;24.738;2023-08-31T10:08:02;98867.63;;;32.48;34.66
9889;BME280;4983;42.112;24.738;2023-08-31T10:10:30;98871.78;;;32.32;35.81
9889;BME280;4983;42.112;24.738;2023-08-31T10:12:58;98883.38;;;32.25;36.48
9889;BME280;4983;42.112;24.738;2023-08-31T10:15:31;98879.06;;;32.33;35.33
9889;BME280;4983;42.112;24.738;2023-08-31T10:18:00;98864.09;;;32.56;34.35
9889;BME280;4983;42.112;24.738;2023-08-31T10:20:29;98874.88;;;32.99;33.61
9889;BME280;4983;42.112;24.738;2023-08-31T10:23:00;98847.88;;;33.17;32.51
9889;BME280;4983;42.112;24.738;2023-08-31T10:25:59;98858.19;;;33.35;32.78
9889;BME280;4983;42.112;24.738;2023-08-31T10:28:28;98830.75;;;33.59;30.24
9889;BME280;4983;42.112;24.738;2023-08-31T10:31:01;98822.16;;;33.42;30.10
9889;BME280;4983;42.112;24.738;2023-08-31T10:33:31;98846.13;;;33.61;33.41
9889;BME280;4983;42.112;24.738;2023-08-31T10:35:59;98821.31;;;33.28;30.26
9889;BME280;4983;42.112;24.738;2023-08-31T10:38:28;98840.47;;;32.62;32.05
9889;BME280;4983;42.112;24.738;2023-08-31T10:41:18;98851.56;;;32.35;32.24
9889;BME280;4983;42.112;24.738;2023-08-31T10:43:48;98850.69;;;32.53;33.41
9889;BME280;4983;42.112;24.738;2023-08-31T10:46:17;98862.31;;;32.46;33.09
9889;BME280;4983;42.112;24.738;2023-08-31T10:48:51;98862.44;;;32.55;32.96
9889;BME280;4983;42.112;24.738;2023-08-31T10:51:22;98853.41;;;32.58;31.72
9889;BME280;4983;42.112;24.738;2023-08-31T10:53:49;98838.72;;;32.66;30.60
9889;BME280;4983;42.112;24.738;2023-08-31T10:56:18;98854.56;;;32.57;31.15
9889;BME280;4983;42.112;24.738;2023-08-31T10:58:58;98883.72;;;32.74;36.36
9889;BME280;4983;42.112;24.738;2023-08-31T11:01:51;98867.69;;;32.75;32.69
9889;BME280;4983;42.112;24.738;2023-08-31T11:04:18;98853.13;;;32.41;31.56
9889;BME280;4983;42.112;24.738;2023-08-31T11:06:46;98864.44;;;32.36;32.26
9889;BME280;4983;42.112;24.738;2023-08-31T11:09:19;98869.66;;;32.42;34.83
9889;BME280;4983;42.112;24.738;2023-08-31T11:11:48;98883.44;;;32.89;33.63
9889;BME280;4983;42.112;24.738;2023-08-31T11:14:15;98857.69;;;32.87;31.61
9889;BME280;4983;42.112;24.738;2023-08-31T11:16:43;98845.69;;;32.68;31.27
9889;BME280;4983;42.112;24.738;2023-08-31T11:19:10;98844.56;;;33.15;32.05
9889;BME280;4983;42.112;24.738;2023-08-31T11:21:38;98838.97;;;33.69;30.91
9889;BME280;4983;42.112;24.738;2023-08-31T11:24:07;98825.88;;;34.13;29.48
9889;BME280;4983;42.112;24.738;2023-08-31T11:26:35;98827.22;;;34.29;30.28
9889;BME280;4983;42.112;24.738;2023-08-31T11:29:07;98822.53;;;34.69;29.39
9889;BME280;4983;42.112;24.738;2023-08-31T11:31:38;98821.97;;;34.58;29.79
9889;BME280;4983;42.112;24.738;2023-08-31T11:34:05;98810.03;;;34.31;29.56
9889;BME280;4983;42.112;24.738;2023-08-31T11:36:33;98830.41;;;34.23;30.52
9889;BME280;4983;42.112;24.738;2023-08-31T12:10:07;98810.09;;;34.04;30.12
9889;BME280;4983;42.112;24.738;2023-08-31T12:12:35;98814.75;;;34.44;30.32
9889;BME280;4983;42.112;24.738;2023-08-31T12:15:03;98794.09;;;34.04;29.70
9889;BME280;4983;42.112;24.738;2023-08-31T12:17:37;98798.81;;;34.31;29.84
9889;BME280;4983;42.112;24.738;2023-08-31T12:20:06;98811.09;;;34.21;32.03
9889;BME280;4983;42.112;24.738;2023-08-31T12:22:35;98808.47;;;33.76;32.05
9889;BME280;4983;42.112;24.738;2023-08-31T12:25:03;98807.09;;;34.00;32.68
9889;BME280;4983;42.112;24.738;2023-08-31T12:27:32;98812.31;;;34.29;31.61
9889;BME280;4983;42.112;24.738;2023-08-31T12:29:59;98812.72;;;34.80;31.04
9889;BME280;4983;42.112;24.738;2023-08-31T12:32:26;98801.47;;;35.10;29.92
9889;BME280;4983;42.112;24.738;2023-08-31T12:34:54;98790.81;;;34.99;29.68
9889;BME280;4983;42.112;24.738;2023-08-31T12:37:21;98806.56;;;35.08;30.57
9889;BME280;4983;42.112;24.738;2023-08-31T12:39:48;98798.03;;;35.22;29.07
9889;BME280;4983;42.112;24.738;2023-08-31T12:42:16;98777.75;;;35.33;28.58
9889;BME280;4983;42.112;24.738;2023-08-31T12:44:44;98773.78;;;35.04;28.44
9889;BME280;4983;42.112;24.738;2023-08-31T12:47:11;98771.81;;;35.04;28.29
9889;BME280;4983;42.112;24.738;2023-08-31T12:49:38;98759.88;;;35.07;27.35
9889;BME280;4983;42.112;24.738;2023-08-31T12:52:05;98759.28;;;35.19;28.10
9889;BME280;4983;42.112;24.738;2023-08-31T12:54:33;98761.34;;;35.35;27.66
9889;BME280;4983;42.112;24.738;2023-08-31T12:57:00;98744.25;;;35.23;27.29
9889;BME280;4983;42.112;24.738;2023-08-31T12:59:28;98749.00;;;35.14;26.93
9889;BME280;4983;42.112;24.738;2023-08-31T13:01:56;98747.53;;;34.78;26.83
9889;BME280;4983;42.112;24.738;2023-08-31T13:04:24;98753.59;;;34.49;28.93
9889;BME280;4983;42.112;24.738;2023-08-31T13:06:51;98744.56;;;34.30;27.84
9889;BME280;4983;42.112;24.738;2023-08-31T13:09:18;98748.03;;;34.27;28.62
9889;BME280;4983;42.112;24.738;2023-08-31T13:11:46;98775.31;;;34.79;28.42
9889;BME280;4983;42.112;24.738;2023-08-31T13:14:13;98757.84;;;34.69;28.82
9889;BME280;4983;42.112;24.738;2023-08-31T13:16:40;98774.31;;;34.31;29.31
9889;BME280;4983;42.112;24.738;2023-08-31T13:19:08;98777.63;;;34.11;30.68
9889;BME280;4983;42.112;24.738;2023-08-31T13:21:36;98791.19;;;34.18;30.42
9889;BME280;4983;42.112;24.738;2023-08-31T13:24:05;98777.38;;;34.43;29.45
9889;BME280;4983;42.112;24.738;2023-08-31T13:26:33;98776.03;;;34.41;30.93
9889;BME280;4983;42.112;24.738;2023-08-31T13:29:00;98774.13;;;34.50;29.53
9889;BME280;4983;42.112;24.738;2023-08-31T13:31:27;98769.78;;;34.44;29.03
9889;BME280;4983;42.112;24.738;2023-08-31T13:33:55;98769.41;;;34.37;29.44
9889;BME280;4983;42.112;24.738;2023-08-31T13:36:23;98766.53;;;34.28;29.68
9889;BME280;4983;42.112;24.738;2023-08-31T13:38:51;98758.16;;;33.79;28.96
9889;BME280;4983;42.112;24.738;2023-08-31T13:41:20;98780.75;;;33.61;30.48
9889;BME280;4983;42.112;24.738;2023-08-31T13:43:48;98789.97;;;33.61;30.37
9889;BME280;4983;42.112;24.738;2023-08-31T13:46:15;98796.66;;;33.52;32.53
9889;BME280;4983;42.112;24.738;2023-08-31T13:48:42;98790.75;;;33.40;31.99
9889;BME280;4983;42.112;24.738;2023-08-31T13:51:10;98774.94;;;33.17;31.25
9889;BME280;4983;42.112;24.738;2023-08-31T13:53:38;98805.63;;;33.54;32.11